sensor_id;sensor_type;location;lat;lon;timestamp;temperature;humidity
45409;DHT22;31162;51.076;3.784;2023-08-01T00:00:38;17.50;99.90
45409;DHT22;31162;51.076;3.784;2023-08-01T00:03:04;17.50;99.90
45409;DHT22;31162;51.076;3.784;2023-08-01T00:05:29;17.40;99.90
45409;DHT22;31162;51.076;3.784;2023-08-01T00:07:55;17.40;99.90
45409;DHT22;31162;51.076;3.784;2023-08-01T00:10:21;17.40;99.90
45409;DHT22;31162;51.076;3.784;2023-08-01T00:12:46;17.50;99.90
45409;DHT22;31162;51.076;3.784;2023-08-01T00:15:12;17.50;99.90
45409;DHT22;31162;51.076;3.784;2023-08-01T00:17:38;17.40;99.90
45409;DHT22;31162;51.076;3.784;2023-08-01T00:20:04;17.40;99.90
45409;DHT22;31162;51.076;3.784;2023-08-01T00:22:30;17.30;99.90
45409;DHT22;31162;51.076;3.784;2023-08-01T00:24:55;17.30;99.90
45409;DHT22;31162;51.076;3.784;2023-08-01T00:27:21;17.30;99.90
45409;DHT22;31162;51.076;3.784;2023-08-01T00:29:47;17.30;99.90
45409;DHT22;31162;51.076;3.784;2023-08-01T00:32:12;17.30;99.90
45409;DHT22;31162;51.076;3.784;2023-08-01T00:34:38;17.30;99.90
45409;DHT22;31162;51.076;3.784;2023-08-01T00:37:04;17.20;99.90
45409;DHT22;31162;51.076;3.784;2023-08-01T00:39:30;17.20;99.90
45409;DHT22;31162;51.076;3.784;2023-08-01T00:41:56;17.20;99.90
45409;DHT22;31162;51.076;3.784;2023-08-01T00:44:22;17.30;99.90
45409;DHT22;31162;51.076;3.784;2023-08-01T00:46:48;17.30;99.90
45409;DHT22;31162;51.076;3.784;2023-08-01T00:49:14;17.20;99.90
45409;DHT22;31162;51.076;3.784;2023-08-01T00:51:41;17.20;99.90
45409;DHT22;31162;51.076;3.784;2023-08-01T00:54:06;17.20;99.90
45409;DHT22;31162;51.076;3.784;2023-08-01T00:56:33;17.30;99.90
45409;DHT22;31162;51.076;3.784;2023-08-01T00:58:58;17.30;99.90
45409;DHT22;31162;51.076;3.784;2023-08-01T01:01:24;17.30;99.90
45409;DHT22;31162;51.076;3.784;2023-08-01T01:03:50;17.30;99.90
45409;DHT22;31162;51.076;3.784;2023-08-01T01:08:42;17.30;99.90
45409;DHT22;31162;51.076;3.784;2023-08-01T01:11:10;17.30;99.90
45409;DHT22;31162;51.076;3.784;2023-08-01T01:13:36;17.30;99.90
45409;DHT22;31162;51.076;3.784;2023-08-01T01:16:01;17.30;99.90
45409;DHT22;31162;51.076;3.784;2023-08-01T01:18:27;17.30;99.90
45409;DHT22;31162;51.076;3.784;2023-08-01T01:20:53;17.20;99.90
45409;DHT22;31162;51.076;3.784;2023-08-01T01:23:19;17.10;99.90
45409;DHT22;31162;51.076;3.784;2023-08-01T01:25:46;17.20;99.90
45409;DHT22;31162;51.076;3.784;2023-08-01T01:28:13;17.20;99.90
45409;DHT22;31162;51.076;3.784;2023-08-01T01:30:41;17.10;99.90
45409;DHT22;31162;51.076;3.784;2023-08-01T01:33:07;17.10;99.90
45409;DHT22;31162;51.076;3.784;2023-08-01T01:35:34;17.10;99.90
45409;DHT22;31162;51.076;3.784;2023-08-01T01:38:00;17.10;99.90
45409;DHT22;31162;51.076;3.784;2023-08-01T01:40:30;17.20;99.90
45409;DHT22;31162;51.076;3.784;2023-08-01T01:42:56;17.10;99.90
45409;DHT22;31162;51.076;3.784;2023-08-01T01:45:21;17.00;99.90
45409;DHT22;31162;51.076;3.784;2023-08-01T01:47:47;17.00;99.90
45409;DHT22;31162;51.076;3.784;2023-08-01T01:50:13;17.00;99.90
45409;DHT22;31162;51.076;3.784;2023-08-01T01:52:38;17.10;99.90
45409;DHT22;31162;51.076;3.784;2023-08-01T01:55:04;17.10;99.90
45409;DHT22;31162;51.076;3.784;2023-08-01T01:57:30;17.10;99.90
45409;DHT22;31162;51.076;3.784;2023-08-01T01:59:56;17.20;99.90
45409;DHT22;31162;51.076;3.784;2023-08-01T02:02:21;17.30;99.90
45409;DHT22;31162;51.076;3.784;2023-08-01T02:04:50;17.20;99.90
45409;DHT22;31162;51.076;3.784;2023-08-01T02:07:16;17.20;99.90
45409;DHT22;31162;51.076;3.784;2023-08-01T02:09:41;17.20;99.90
45409;DHT22;31162;51.076;3.784;2023-08-01T02:12:07;17.20;99.90
45409;DHT22;31162;51.076;3.784;2023-08-01T02:14:35;17.20;99.90
45409;DHT22;31162;51.076;3.784;2023-08-01T02:17:01;17.30;99.90
45409;DHT22;31162;51.076;3.784;2023-08-01T02:19:27;17.20;99.90
45409;DHT22;31162;51.076;3.784;2023-08-01T02:21:53;17.10;99.90
45409;DHT22;31162;51.076;3.784;2023-08-01T02:24:19;17.10;99.90
45409;DHT22;31162;51.076;3.784;2023-08-01T02:26:45;17.10;99.90
45409;DHT22;31162;51.076;3.784;2023-08-01T02:29:11;17.10;99.90
45409;DHT22;31162;51.076;3.784;2023-08-01T02:31:36;17.10;99.90
45409;DHT22;31162;51.076;3.784;2023-08-01T02:34:02;17.20;99.90
45409;DHT22;31162;51.076;3.784;2023-08-01T02:36:28;17.30;99.90
45409;DHT22;31162;51.076;3.784;2023-08-01T02:38:53;17.20;99.90
45409;DHT22;31162;51.076;3.784;2023-08-01T02:41:19;17.30;99.90
45409;DHT22;31162;51.076;3.784;2023-08-01T02:43:44;17.30;99.90
45409;DHT22;31162;51.076;3.784;2023-08-01T02:46:10;17.40;99.90
45409;DHT22;31162;51.076;3.784;2023-08-01T02:48:36;17.30;99.90
45409;DHT22;31162;51.076;3.784;2023-08-01T02:51:02;17.30;99.90
45409;DHT22;31162;51.076;3.784;2023-08-01T02:53:27;17.40;99.90
45409;DHT22;31162;51.076;3.784;2023-08-01T02:55:53;17.40;99.90
45409;DHT22;31162;51.076;3.784;2023-08-01T02:58:19;17.40;99.90
45409;DHT22;31162;51.076;3.784;2023-08-01T03:00:44;17.40;99.90
45409;DHT22;31162;51.076;3.784;2023-08-01T03:03:10;17.30;99.90
45409;DHT22;31162;51.076;3.784;2023-08-01T03:05:36;17.30;99.90
45409;DHT22;31162;51.076;3.784;2023-08-01T03:08:04;17.30;99.90
45409;DHT22;31162;51.076;3.784;2023-08-01T03:10:29;17.30;99.90
45409;DHT22;31162;51.076;3.784;2023-08-01T03:12:55;17.30;99.90
45409;DHT22;31162;51.076;3.784;2023-08-01T03:15:21;17.20;99.90
45409;DHT22;31162;51.076;3.784;2023-08-01T03:17:46;17.20;99.90
45409;DHT22;31162;51.076;3.784;2023-08-01T03:20:12;17.30;99.90
45409;DHT22;31162;51.076;3.784;2023-08-01T03:22:43;17.20;99.90
45409;DHT22;31162;51.076;3.784;2023-08-01T03:25:09;17.20;99.90
45409;DHT22;31162;51.076;3.784;2023-08-01T03:27:35;17.10;99.90
45409;DHT22;31162;51.076;3.784;2023-08-01T03:30:01;17.10;99.90
45409;DHT22;31162;51.076;3.784;2023-08-01T03:32:28;17.20;99.90
45409;DHT22;31162;51.076;3.784;2023-08-01T03:34:53;17.20;99.90
45409;DHT22;31162;51.076;3.784;2023-08-01T03:37:19;17.20;99.90
45409;DHT22;31162;51.076;3.784;2023-08-01T03:39:44;17.20;99.90
45409;DHT22;31162;51.076;3.784;2023-08-01T03:42:10;17.20;99.90
45409;DHT22;31162;51.076;3.784;2023-08-01T03:44:36;17.30;99.90
45409;DHT22;31162;51.076;3.784;2023-08-01T03:47:02;17.30;99.90
45409;DHT22;31162;51.076;3.784;2023-08-01T03:49:27;17.20;99.90
45409;DHT22;31162;51.076;3.784;2023-08-01T03:51:53;17.20;99.90
45409;DHT22;31162;51.076;3.784;2023-08-01T03:54:19;17.20;99.90
45409;DHT22;31162;51.076;3.784;2023-08-01T03:56:44;17.20;99.90
45409;DHT22;31162;51.076;3.784;2023-08-01T03:59:13;17.20;99.90
45409;DHT22;31162;51.076;3.784;2023-08-01T04:01:39;17.20;99.90
45409;DHT22;31162;51.076;3.784;2023-08-01T04:04:04;17.20;99.90
45409;DHT22;31162;51.076;3.784;2023-08-01T04:06:30;17.20;99.90
45409;DHT22;31162;51.076;3.784;2023-08-01T04:08:56;17.20;99.90
45409;DHT22;31162;51.076;3.784;2023-08-01T04:11:26;17.20;99.90
45409;DHT22;31162;51.076;3.784;2023-08-01T04:13:52;17.10;99.90
45409;DHT22;31162;51.076;3.784;2023-08-01T04:16:19;17.00;99.90
45409;DHT22;31162;51.076;3.784;2023-08-01T04:18:45;17.00;99.90
45409;DHT22;31162;51.076;3.784;2023-08-01T04:21:14;17.00;99.90
45409;DHT22;31162;51.076;3.784;2023-08-01T04:23:41;16.90;99.90
45409;DHT22;31162;51.076;3.784;2023-08-01T04:26:07;16.90;99.90
45409;DHT22;31162;51.076;3.784;2023-08-01T04:28:33;16.90;99.90
45409;DHT22;31162;51.076;3.784;2023-08-01T04:30:59;16.90;99.90
45409;DHT22;31162;51.076;3.784;2023-08-01T04:33:25;17.00;99.90
45409;DHT22;31162;51.076;3.784;2023-08-01T04:35:50;17.10;99.90
45409;DHT22;31162;51.076;3.784;2023-08-01T04:38:16;17.20;99.90
45409;DHT22;31162;51.076;3.784;2023-08-01T04:40:42;17.20;99.90
45409;DHT22;31162;51.076;3.784;2023-08-01T04:43:08;17.20;99.90
45409;DHT22;31162;51.076;3.784;2023-08-01T04:45:34;17.20;99.90
45409;DHT22;31162;51.076;3.784;2023-08-01T04:48:00;17.20;99.90
45409;DHT22;31162;51.076;3.784;2023-08-01T04:50:25;17.30;99.90
45409;DHT22;31162;51.076;3.784;2023-08-01T04:52:51;17.40;99.90
45409;DHT22;31162;51.076;3.784;2023-08-01T04:55:17;17.30;99.90
45409;DHT22;31162;51.076;3.784;2023-08-01T04:57:42;17.30;99.90
45409;DHT22;31162;51.076;3.784;2023-08-01T05:00:09;17.50;99.90
45409;DHT22;31162;51.076;3.784;2023-08-01T05:02:35;17.60;99.90
45409;DHT22;31162;51.076;3.784;2023-08-01T05:05:01;17.70;99.90
45409;DHT22;31162;51.076;3.784;2023-08-01T05:07:27;17.90;99.90
45409;DHT22;31162;51.076;3.784;2023-08-01T05:09:52;18.00;99.90
45409;DHT22;31162;51.076;3.784;2023-08-01T05:12:18;18.10;99.90
45409;DHT22;31162;51.076;3.784;2023-08-01T05:14:44;18.30;99.90
45409;DHT22;31162;51.076;3.784;2023-08-01T05:17:09;18.10;99.90
45409;DHT22;31162;51.076;3.784;2023-08-01T05:19:35;18.10;99.90
45409;DHT22;31162;51.076;3.784;2023-08-01T05:22:01;18.10;99.90
45409;DHT22;31162;51.076;3.784;2023-08-01T05:24:27;18.00;99.90
45409;DHT22;31162;51.076;3.784;2023-08-01T05:26:52;18.00;99.90
45409;DHT22;31162;51.076;3.784;2023-08-01T05:29:18;17.80;99.90
45409;DHT22;31162;51.076;3.784;2023-08-01T05:31:43;17.80;99.90
45409;DHT22;31162;51.076;3.784;2023-08-01T05:34:09;17.90;99.90
45409;DHT22;31162;51.076;3.784;2023-08-01T05:36:35;18.00;99.90
45409;DHT22;31162;51.076;3.784;2023-08-01T05:39:02;18.00;99.90
45409;DHT22;31162;51.076;3.784;2023-08-01T05:41:29;18.20;99.90
45409;DHT22;31162;51.076;3.784;2023-08-01T05:43:54;18.20;99.90
45409;DHT22;31162;51.076;3.784;2023-08-01T05:46:20;18.30;99.90
45409;DHT22;31162;51.076;3.784;2023-08-01T05:48:46;18.40;99.90
45409;DHT22;31162;51.076;3.784;2023-08-01T05:51:11;18.40;99.90
45409;DHT22;31162;51.076;3.784;2023-08-01T05:53:37;18.60;99.90
45409;DHT22;31162;51.076;3.784;2023-08-01T05:56:03;18.90;99.90
45409;DHT22;31162;51.076;3.784;2023-08-01T05:58:30;19.00;99.90
45409;DHT22;31162;51.076;3.784;2023-08-01T06:00:56;19.10;99.90
45409;DHT22;31162;51.076;3.784;2023-08-01T06:03:22;19.00;99.90
45409;DHT22;31162;51.076;3.784;2023-08-01T06:05:48;18.70;99.90
45409;DHT22;31162;51.076;3.784;2023-08-01T06:08:14;18.50;99.90
45409;DHT22;31162;51.076;3.784;2023-08-01T06:10:41;18.40;99.90
45409;DHT22;31162;51.076;3.784;2023-08-01T06:13:07;18.30;99.90
45409;DHT22;31162;51.076;3.784;2023-08-01T06:15:33;18.40;99.90
45409;DHT22;31162;51.076;3.784;2023-08-01T06:17:59;18.80;99.90
45409;DHT22;31162;51.076;3.784;2023-08-01T06:20:25;19.10;99.90
45409;DHT22;31162;51.076;3.784;2023-08-01T06:22:51;19.30;99.90
45409;DHT22;31162;51.076;3.784;2023-08-01T06:25:17;19.60;99.90
45409;DHT22;31162;51.076;3.784;2023-08-01T06:27:42;20.00;99.90
45409;DHT22;31162;51.076;3.784;2023-08-01T06:30:08;21.70;99.90
45409;DHT22;31162;51.076;3.784;2023-08-01T06:32:34;22.80;99.90
45409;DHT22;31162;51.076;3.784;2023-08-01T06:35:00;22.20;99.90
45409;DHT22;31162;51.076;3.784;2023-08-01T06:37:26;21.60;99.90
45409;DHT22;31162;51.076;3.784;2023-08-01T06:39:51;21.40;99.90
45409;DHT22;31162;51.076;3.784;2023-08-01T06:42:17;21.60;99.90
45409;DHT22;31162;51.076;3.784;2023-08-01T06:44:43;21.60;99.90
45409;DHT22;31162;51.076;3.784;2023-08-01T06:47:09;21.10;99.90
45409;DHT22;31162;51.076;3.784;2023-08-01T06:49:34;20.70;99.90
45409;DHT22;31162;51.076;3.784;2023-08-01T06:52:00;21.20;99.90
45409;DHT22;31162;51.076;3.784;2023-08-01T06:54:28;23.10;99.90
45409;DHT22;31162;51.076;3.784;2023-08-01T06:56:54;25.10;99.90
45409;DHT22;31162;51.076;3.784;2023-08-01T06:59:19;25.40;99.90
45409;DHT22;31162;51.076;3.784;2023-08-01T07:01:45;26.90;99.90
45409;DHT22;31162;51.076;3.784;2023-08-01T07:04:11;29.30;99.90
45409;DHT22;31162;51.076;3.784;2023-08-01T07:06:37;28.70;99.90
45409;DHT22;31162;51.076;3.784;2023-08-01T07:09:02;27.30;99.90
45409;DHT22;31162;51.076;3.784;2023-08-01T07:11:28;26.60;99.90
45409;DHT22;31162;51.076;3.784;2023-08-01T07:13:54;26.60;99.90
45409;DHT22;31162;51.076;3.784;2023-08-01T07:16:20;25.60;99.90
45409;DHT22;31162;51.076;3.784;2023-08-01T07:18:46;24.40;99.90
45409;DHT22;31162;51.076;3.784;2023-08-01T07:21:14;24.40;99.90
45409;DHT22;31162;51.076;3.784;2023-08-01T07:23:40;24.00;99.90
45409;DHT22;31162;51.076;3.784;2023-08-01T07:26:06;24.00;99.90
45409;DHT22;31162;51.076;3.784;2023-08-01T07:28:31;24.20;99.90
45409;DHT22;31162;51.076;3.784;2023-08-01T07:31:06;24.30;99.90
45409;DHT22;31162;51.076;3.784;2023-08-01T07:33:32;23.80;99.90
45409;DHT22;31162;51.076;3.784;2023-08-01T07:35:59;23.20;99.90
45409;DHT22;31162;51.076;3.784;2023-08-01T07:38:24;23.90;99.90
45409;DHT22;31162;51.076;3.784;2023-08-01T07:40:52;24.70;99.90
45409;DHT22;31162;51.076;3.784;2023-08-01T07:43:18;25.70;99.90
45409;DHT22;31162;51.076;3.784;2023-08-01T07:45:46;26.10;99.90
45409;DHT22;31162;51.076;3.784;2023-08-01T07:48:12;26.50;99.90
45409;DHT22;31162;51.076;3.784;2023-08-01T07:50:37;27.00;99.90
45409;DHT22;31162;51.076;3.784;2023-08-01T07:53:03;28.30;99.90
45409;DHT22;31162;51.076;3.784;2023-08-01T07:55:29;27.90;99.90
45409;DHT22;31162;51.076;3.784;2023-08-01T07:57:58;28.80;99.90
45409;DHT22;31162;51.076;3.784;2023-08-01T08:00:24;28.50;99.90
45409;DHT22;31162;51.076;3.784;2023-08-01T08:02:52;28.60;99.90
45409;DHT22;31162;51.076;3.784;2023-08-01T08:05:20;28.30;99.90
45409;DHT22;31162;51.076;3.784;2023-08-01T08:07:46;27.90;99.90
45409;DHT22;31162;51.076;3.784;2023-08-01T08:10:12;27.70;99.90
45409;DHT22;31162;51.076;3.784;2023-08-01T08:12:37;27.80;99.90
45409;DHT22;31162;51.076;3.784;2023-08-01T08:15:03;29.10;99.90
45409;DHT22;31162;51.076;3.784;2023-08-01T08:17:29;30.60;99.90
45409;DHT22;31162;51.076;3.784;2023-08-01T08:19:55;30.70;99.90
45409;DHT22;31162;51.076;3.784;2023-08-01T08:22:20;29.40;99.90
45409;DHT22;31162;51.076;3.784;2023-08-01T08:24:46;28.10;99.90
45409;DHT22;31162;51.076;3.784;2023-08-01T08:27:12;26.70;99.90
45409;DHT22;31162;51.076;3.784;2023-08-01T08:29:38;25.70;99.90
45409;DHT22;31162;51.076;3.784;2023-08-01T08:32:04;27.30;99.90
45409;DHT22;31162;51.076;3.784;2023-08-01T08:34:29;30.10;99.90
45409;DHT22;31162;51.076;3.784;2023-08-01T08:36:57;32.50;99.90
45409;DHT22;31162;51.076;3.784;2023-08-01T08:39:23;32.30;98.40
45409;DHT22;31162;51.076;3.784;2023-08-01T08:41:51;30.80;98.30
45409;DHT22;31162;51.076;3.784;2023-08-01T08:44:19;29.30;99.60
45409;DHT22;31162;51.076;3.784;2023-08-01T08:46:51;28.10;99.90
45409;DHT22;31162;51.076;3.784;2023-08-01T08:49:19;26.90;99.90
45409;DHT22;31162;51.076;3.784;2023-08-01T08:51:46;25.80;99.90
45409;DHT22;31162;51.076;3.784;2023-08-01T08:54:14;25.90;99.90
45409;DHT22;31162;51.076;3.784;2023-08-01T08:56:40;27.30;99.90
45409;DHT22;31162;51.076;3.784;2023-08-01T08:59:09;27.50;99.90
45409;DHT22;31162;51.076;3.784;2023-08-01T09:01:38;26.90;99.90
45409;DHT22;31162;51.076;3.784;2023-08-01T09:04:04;27.50;99.90
45409;DHT22;31162;51.076;3.784;2023-08-01T09:06:32;27.30;99.90
45409;DHT22;31162;51.076;3.784;2023-08-01T09:09:09;26.60;99.90
45409;DHT22;31162;51.076;3.784;2023-08-01T09:11:45;29.00;99.90
45409;DHT22;31162;51.076;3.784;2023-08-01T09:14:11;31.70;99.40
45409;DHT22;31162;51.076;3.784;2023-08-01T09:16:36;34.00;96.00
45409;DHT22;31162;51.076;3.784;2023-08-01T09:19:02;34.80;93.90
45409;DHT22;31162;51.076;3.784;2023-08-01T09:21:32;33.70;93.30
45409;DHT22;31162;51.076;3.784;2023-08-01T09:24:11;32.10;94.90
45409;DHT22;31162;51.076;3.784;2023-08-01T09:26:38;31.50;94.20
45409;DHT22;31162;51.076;3.784;2023-08-01T09:29:03;30.30;95.50
45409;DHT22;31162;51.076;3.784;2023-08-01T09:31:32;29.60;95.80
45409;DHT22;31162;51.076;3.784;2023-08-01T09:33:59;29.60;96.30
45409;DHT22;31162;51.076;3.784;2023-08-01T09:36:25;31.50;95.20
45409;DHT22;31162;51.076;3.784;2023-08-01T09:38:57;32.40;94.30
45409;DHT22;31162;51.076;3.784;2023-08-01T09:41:23;32.20;93.90
45409;DHT22;31162;51.076;3.784;2023-08-01T09:43:49;31.50;93.80
45409;DHT22;31162;51.076;3.784;2023-08-01T09:46:15;30.10;95.10
45409;DHT22;31162;51.076;3.784;2023-08-01T09:48:41;29.60;96.10
45409;DHT22;31162;51.076;3.784;2023-08-01T09:51:09;29.10;96.50
45409;DHT22;31162;51.076;3.784;2023-08-01T09:53:56;28.70;96.50
45409;DHT22;31162;51.076;3.784;2023-08-01T09:56:28;28.50;96.20
45409;DHT22;31162;51.076;3.784;2023-08-01T09:58:55;28.20;96.40
45409;DHT22;31162;51.076;3.784;2023-08-01T10:01:23;29.20;95.40
45409;DHT22;31162;51.076;3.784;2023-08-01T10:03:52;29.60;95.50
45409;DHT22;31162;51.076;3.784;2023-08-01T10:06:19;29.40;95.50
45409;DHT22;31162;51.076;3.784;2023-08-01T10:08:49;30.40;95.50
45409;DHT22;31162;51.076;3.784;2023-08-01T10:11:17;30.40;94.40
45409;DHT22;31162;51.076;3.784;2023-08-01T10:13:43;30.50;94.30
45409;DHT22;31162;51.076;3.784;2023-08-01T10:16:10;31.90;94.60
45409;DHT22;31162;51.076;3.784;2023-08-01T10:18:37;32.70;93.50
45409;DHT22;31162;51.076;3.784;2023-08-01T10:21:08;33.40;92.60
45409;DHT22;31162;51.076;3.784;2023-08-01T10:23:35;34.50;92.10
45409;DHT22;31162;51.076;3.784;2023-08-01T10:26:04;35.40;90.30
45409;DHT22;31162;51.076;3.784;2023-08-01T10:28:32;35.10;90.30
45409;DHT22;31162;51.076;3.784;2023-08-01T10:31:14;34.20;90.00
45409;DHT22;31162;51.076;3.784;2023-08-01T10:33:43;33.00;90.60
45409;DHT22;31162;51.076;3.784;2023-08-01T10:36:18;31.40;91.60
45409;DHT22;31162;51.076;3.784;2023-08-01T10:38:52;30.40;92.70
45409;DHT22;31162;51.076;3.784;2023-08-01T10:41:26;32.30;91.90
45409;DHT22;31162;51.076;3.784;2023-08-01T10:44:09;33.90;90.40
45409;DHT22;31162;51.076;3.784;2023-08-01T10:49:20;33.80;89.10
45409;DHT22;31162;51.076;3.784;2023-08-01T10:51:47;34.10;87.90
45409;DHT22;31162;51.076;3.784;2023-08-01T10:54:23;33.70;87.40
45409;DHT22;31162;51.076;3.784;2023-08-01T10:56:56;33.40;88.00
45409;DHT22;31162;51.076;3.784;2023-08-01T10:59:24;33.30;88.80
45409;DHT22;31162;51.076;3.784;2023-08-01T11:01:53;32.00;88.30
45409;DHT22;31162;51.076;3.784;2023-08-01T11:04:21;30.70;90.40
45409;DHT22;31162;51.076;3.784;2023-08-01T11:06:49;29.00;92.40
45409;DHT22;31162;51.076;3.784;2023-08-01T11:09:28;28.00;93.30
45409;DHT22;31162;51.076;3.784;2023-08-01T11:11:56;27.50;93.50
45409;DHT22;31162;51.076;3.784;2023-08-01T11:14:28;27.40;94.10
45409;DHT22;31162;51.076;3.784;2023-08-01T11:16:55;28.60;93.50
45409;DHT22;31162;51.076;3.784;2023-08-01T11:19:25;31.30;92.10
45409;DHT22;31162;51.076;3.784;2023-08-01T11:21:51;33.20;90.30
45409;DHT22;31162;51.076;3.784;2023-08-01T11:24:18;34.00;89.70
45409;DHT22;31162;51.076;3.784;2023-08-01T11:26:46;34.70;87.50
45409;DHT22;31162;51.076;3.784;2023-08-01T11:29:16;35.30;87.50
45409;DHT22;31162;51.076;3.784;2023-08-01T11:31:56;35.60;84.30
45409;DHT22;31162;51.076;3.784;2023-08-01T11:34:23;35.80;84.20
45409;DHT22;31162;51.076;3.784;2023-08-01T11:36:49;34.70;83.40
45409;DHT22;31162;51.076;3.784;2023-08-01T11:39:16;33.30;84.70
45409;DHT22;31162;51.076;3.784;2023-08-01T11:41:42;32.10;86.90
45409;DHT22;31162;51.076;3.784;2023-08-01T11:44:08;31.00;88.80
45409;DHT22;31162;51.076;3.784;2023-08-01T11:46:37;30.30;89.60
45409;DHT22;31162;51.076;3.784;2023-08-01T11:49:04;29.70;89.70
45409;DHT22;31162;51.076;3.784;2023-08-01T11:51:39;29.50;90.20
45409;DHT22;31162;51.076;3.784;2023-08-01T11:54:04;29.30;90.40
45409;DHT22;31162;51.076;3.784;2023-08-01T11:56:31;29.00;91.20
45409;DHT22;31162;51.076;3.784;2023-08-01T11:58:57;29.00;91.20
45409;DHT22;31162;51.076;3.784;2023-08-01T12:01:24;30.70;90.40
45409;DHT22;31162;51.076;3.784;2023-08-01T12:03:54;32.50;88.90
45409;DHT22;31162;51.076;3.784;2023-08-01T12:06:23;33.70;86.30
45409;DHT22;31162;51.076;3.784;2023-08-01T12:08:51;34.30;86.30
45409;DHT22;31162;51.076;3.784;2023-08-01T12:11:24;33.50;86.00
45409;DHT22;31162;51.076;3.784;2023-08-01T12:14:20;32.20;86.80
45409;DHT22;31162;51.076;3.784;2023-08-01T12:16:47;30.60;89.50
45409;DHT22;31162;51.076;3.784;2023-08-01T12:19:20;29.40;90.60
45409;DHT22;31162;51.076;3.784;2023-08-01T12:21:46;28.30;91.40
45409;DHT22;31162;51.076;3.784;2023-08-01T12:24:12;27.50;91.80
45409;DHT22;31162;51.076;3.784;2023-08-01T12:26:40;27.00;92.20
45409;DHT22;31162;51.076;3.784;2023-08-01T12:29:06;26.80;92.50
45409;DHT22;31162;51.076;3.784;2023-08-01T12:31:33;26.90;92.90
45409;DHT22;31162;51.076;3.784;2023-08-01T12:33:58;26.90;93.40
45409;DHT22;31162;51.076;3.784;2023-08-01T12:36:24;27.20;93.40
45409;DHT22;31162;51.076;3.784;2023-08-01T12:38:54;27.30;93.20
45409;DHT22;31162;51.076;3.784;2023-08-01T12:41:22;27.20;92.90
45409;DHT22;31162;51.076;3.784;2023-08-01T12:43:48;27.40;93.10
45409;DHT22;31162;51.076;3.784;2023-08-01T12:46:14;27.60;93.50
45409;DHT22;31162;51.076;3.784;2023-08-01T12:48:40;27.80;93.20
45409;DHT22;31162;51.076;3.784;2023-08-01T12:51:05;27.10;93.40
45409;DHT22;31162;51.076;3.784;2023-08-01T12:53:31;26.40;93.30
45409;DHT22;31162;51.076;3.784;2023-08-01T12:56:05;25.90;94.10
45409;DHT22;31162;51.076;3.784;2023-08-01T12:58:35;25.50;94.50
45409;DHT22;31162;51.076;3.784;2023-08-01T13:01:03;25.20;95.50
45409;DHT22;31162;51.076;3.784;2023-08-01T13:03:29;25.40;95.60
45409;DHT22;31162;51.076;3.784;2023-08-01T13:05:55;26.10;95.60
45409;DHT22;31162;51.076;3.784;2023-08-01T13:08:22;26.80;94.80
45409;DHT22;31162;51.076;3.784;2023-08-01T13:10:48;27.30;94.50
45409;DHT22;31162;51.076;3.784;2023-08-01T13:13:18;27.30;94.00
45409;DHT22;31162;51.076;3.784;2023-08-01T13:15:44;27.00;93.60
45409;DHT22;31162;51.076;3.784;2023-08-01T13:18:12;26.60;93.40
45409;DHT22;31162;51.076;3.784;2023-08-01T13:20:39;26.20;94.00
45409;DHT22;31162;51.076;3.784;2023-08-01T13:23:05;25.60;94.10
45409;DHT22;31162;51.076;3.784;2023-08-01T13:25:30;25.10;95.00
45409;DHT22;31162;51.076;3.784;2023-08-01T13:27:56;24.60;96.20
45409;DHT22;31162;51.076;3.784;2023-08-01T13:30:22;24.40;97.10
45409;DHT22;31162;51.076;3.784;2023-08-01T13:32:50;24.20;97.70
45409;DHT22;31162;51.076;3.784;2023-08-01T13:35:16;23.80;97.80
45409;DHT22;31162;51.076;3.784;2023-08-01T13:37:42;23.40;98.90
45409;DHT22;31162;51.076;3.784;2023-08-01T13:40:08;23.20;99.10
45409;DHT22;31162;51.076;3.784;2023-08-01T13:42:37;23.10;99.90
45409;DHT22;31162;51.076;3.784;2023-08-01T13:45:03;23.20;99.90
45409;DHT22;31162;51.076;3.784;2023-08-01T13:47:28;23.30;99.90
45409;DHT22;31162;51.076;3.784;2023-08-01T13:49:54;23.60;99.90
45409;DHT22;31162;51.076;3.784;2023-08-01T13:52:20;23.80;99.90
45409;DHT22;31162;51.076;3.784;2023-08-01T13:54:45;23.80;99.90
45409;DHT22;31162;51.076;3.784;2023-08-01T13:57:11;23.50;99.90
45409;DHT22;31162;51.076;3.784;2023-08-01T13:59:37;23.40;99.90
45409;DHT22;31162;51.076;3.784;2023-08-01T14:02:02;23.20;99.90
45409;DHT22;31162;51.076;3.784;2023-08-01T14:04:28;23.00;99.90
45409;DHT22;31162;51.076;3.784;2023-08-01T14:06:54;22.90;99.90
45409;DHT22;31162;51.076;3.784;2023-08-01T14:09:20;22.80;99.90
45409;DHT22;31162;51.076;3.784;2023-08-01T14:11:46;22.70;99.90
45409;DHT22;31162;51.076;3.784;2023-08-01T14:14:12;22.70;99.90
45409;DHT22;31162;51.076;3.784;2023-08-01T14:16:37;22.80;99.90
45409;DHT22;31162;51.076;3.784;2023-08-01T14:19:03;22.80;99.90
45409;DHT22;31162;51.076;3.784;2023-08-01T14:21:29;23.10;99.90
45409;DHT22;31162;51.076;3.784;2023-08-01T14:23:55;23.30;99.90
45409;DHT22;31162;51.076;3.784;2023-08-01T14:26:20;23.50;99.90
45409;DHT22;31162;51.076;3.784;2023-08-01T14:28:46;23.70;99.90
45409;DHT22;31162;51.076;3.784;2023-08-01T14:31:12;23.70;99.90
45409;DHT22;31162;51.076;3.784;2023-08-01T14:33:39;23.70;99.90
45409;DHT22;31162;51.076;3.784;2023-08-01T14:36:09;23.80;99.90
45409;DHT22;31162;51.076;3.784;2023-08-01T14:38:34;23.70;99.90
45409;DHT22;31162;51.076;3.784;2023-08-01T14:41:02;23.80;99.90
45409;DHT22;31162;51.076;3.784;2023-08-01T14:43:28;23.80;99.90
45409;DHT22;31162;51.076;3.784;2023-08-01T14:45:53;23.80;99.90
45409;DHT22;31162;51.076;3.784;2023-08-01T14:48:19;23.90;99.90
45409;DHT22;31162;51.076;3.784;2023-08-01T14:50:46;24.00;99.90
45409;DHT22;31162;51.076;3.784;2023-08-01T14:53:15;24.10;99.90
45409;DHT22;31162;51.076;3.784;2023-08-01T14:55:40;24.30;99.90
45409;DHT22;31162;51.076;3.784;2023-08-01T14:58:06;24.40;99.90
45409;DHT22;31162;51.076;3.784;2023-08-01T15:00:36;24.30;99.90
45409;DHT22;31162;51.076;3.784;2023-08-01T15:03:01;24.20;99.90
45409;DHT22;31162;51.076;3.784;2023-08-01T15:05:27;23.90;99.90
45409;DHT22;31162;51.076;3.784;2023-08-01T15:07:53;23.80;99.90
45409;DHT22;31162;51.076;3.784;2023-08-01T15:10:21;23.70;99.90
45409;DHT22;31162;51.076;3.784;2023-08-01T15:12:55;23.70;99.90
45409;DHT22;31162;51.076;3.784;2023-08-01T15:15:35;23.70;99.90
45409;DHT22;31162;51.076;3.784;2023-08-01T15:18:00;23.50;99.90
45409;DHT22;31162;51.076;3.784;2023-08-01T15:20:26;23.40;99.90
45409;DHT22;31162;51.076;3.784;2023-08-01T15:22:52;23.30;99.90
45409;DHT22;31162;51.076;3.784;2023-08-01T15:25:17;23.20;99.90
45409;DHT22;31162;51.076;3.784;2023-08-01T15:27:43;23.10;99.90
45409;DHT22;31162;51.076;3.784;2023-08-01T15:30:09;23.00;99.90
45409;DHT22;31162;51.076;3.784;2023-08-01T15:32:34;23.00;99.90